sensor_id;sensor_type;location;lat;lon;timestamp;pressure;altitude;pressure_sealevel;temperature;humidity
72612;BME280;60655;52.182;4.474;2024-03-17T00:01:08;102200.66;;;7.57;83.55
72612;BME280;60655;52.182;4.474;2024-03-17T00:03:09;102200.00;;;7.55;83.81
72612;BME280;60655;52.182;4.474;2024-03-17T00:05:10;102190.91;;;7.57;83.93
72612;BME280;60655;52.182;4.474;2024-03-17T00:07:12;102191.72;;;7.58;84.36
72612;BME280;60655;52.182;4.474;2024-03-17T00:09:13;102193.22;;;7.52;84.22
72612;BME280;60655;52.182;4.474;2024-03-17T00:11:14;102186.13;;;7.61;84.99
72612;BME280;60655;52.182;4.474;2024-03-17T00:13:15;102184.78;;;7.57;84.64
72612;BME280;60655;52.182;4.474;2024-03-17T00:15:16;102187.28;;;7.58;84.56
72612;BME280;60655;52.182;4.474;2024-03-17T00:17:17;102180.16;;;7.59;84.09
72612;BME280;60655;52.182;4.474;2024-03-17T00:19:18;102174.88;;;7.59;84.81
72612;BME280;60655;52.182;4.474;2024-03-17T00:21:19;102175.38;;;7.54;85.05
72612;BME280;60655;52.182;4.474;2024-03-17T00:23:20;102183.44;;;7.53;84.53
72612;BME280;60655;52.182;4.474;2024-03-17T00:25:21;102179.69;;;7.63;85.02
72612;BME280;60655;52.182;4.474;2024-03-17T00:27:22;102173.72;;;7.61;84.56
72612;BME280;60655;52.182;4.474;2024-03-17T00:29:23;102178.34;;;7.59;84.15
72612;BME280;60655;52.182;4.474;2024-03-17T00:31:24;102172.25;;;7.51;84.76
72612;BME280;60655;52.182;4.474;2024-03-17T00:33:24;102179.66;;;7.55;84.87
72612;BME280;60655;52.182;4.474;2024-03-17T00:35:26;102170.41;;;7.51;84.86
72612;BME280;60655;52.182;4.474;2024-03-17T00:37:26;102172.06;;;7.52;84.99
72612;BME280;60655;52.182;4.474;2024-03-17T00:39:27;102172.06;;;7.52;85.74
72612;BME280;60655;52.182;4.474;2024-03-17T00:41:28;102166.44;;;7.55;85.13
72612;BME280;60655;52.182;4.474;2024-03-17T00:43:29;102176.84;;;7.57;85.62
72612;BME280;60655;52.182;4.474;2024-03-17T00:45:30;102153.56;;;7.44;85.36
72612;BME280;60655;52.182;4.474;2024-03-17T00:47:31;102168.13;;;7.64;85.95
72612;BME280;60655;52.182;4.474;2024-03-17T00:49:31;102166.47;;;7.63;85.89
72612;BME280;60655;52.182;4.474;2024-03-17T00:51:32;102172.56;;;7.64;85.42
72612;BME280;60655;52.182;4.474;2024-03-17T00:53:33;102166.66;;;7.78;85.98
72612;BME280;60655;52.182;4.474;2024-03-17T00:55:34;102160.34;;;7.71;84.25
72612;BME280;60655;52.182;4.474;2024-03-17T00:57:36;102173.59;;;7.71;84.38
72612;BME280;60655;52.182;4.474;2024-03-17T00:59:37;102140.66;;;7.57;84.46
72612;BME280;60655;52.182;4.474;2024-03-17T01:01:39;102140.34;;;7.68;84.16
72612;BME280;60655;52.182;4.474;2024-03-17T01:03:39;102147.31;;;7.77;84.51
72612;BME280;60655;52.182;4.474;2024-03-17T01:05:40;102149.13;;;7.77;84.16
72612;BME280;60655;52.182;4.474;2024-03-17T01:07:43;102137.06;;;7.74;83.69
72612;BME280;60655;52.182;4.474;2024-03-17T01:09:46;102144.97;;;7.74;84.13
72612;BME280;60655;52.182;4.474;2024-03-17T01:11:47;102150.44;;;7.73;84.18
72612;BME280;60655;52.182;4.474;2024-03-17T01:13:48;102140.19;;;7.78;83.96
72612;BME280;60655;52.182;4.474;2024-03-17T01:15:52;102140.03;;;7.71;83.73
72612;BME280;60655;52.182;4.474;2024-03-17T01:17:53;102146.63;;;7.75;83.91
72612;BME280;60655;52.182;4.474;2024-03-17T01:19:54;102137.06;;;7.74;84.39
72612;BME280;60655;52.182;4.474;2024-03-17T01:21:55;102133.56;;;7.74;84.29
72612;BME280;60655;52.182;4.474;2024-03-17T01:23:55;102133.75;;;7.72;84.24
72612;BME280;60655;52.182;4.474;2024-03-17T01:25:56;102130.91;;;7.66;84.77
72612;BME280;60655;52.182;4.474;2024-03-17T01:27:57;102126.78;;;7.63;84.56
72612;BME280;60655;52.182;4.474;2024-03-17T01:29:58;102122.16;;;7.57;84.68
72612;BME280;60655;52.182;4.474;2024-03-17T01:31:59;102122.00;;;7.59;84.66
72612;BME280;60655;52.182;4.474;2024-03-17T01:34:00;102119.03;;;7.62;85.51
72612;BME280;60655;52.182;4.474;2024-03-17T01:36:01;102116.03;;;7.57;85.87
72612;BME280;60655;52.182;4.474;2024-03-17T01:38:02;102122.16;;;7.65;85.67
72612;BME280;60655;52.182;4.474;2024-03-17T01:40:04;102116.38;;;7.62;85.83
72612;BME280;60655;52.182;4.474;2024-03-17T01:42:11;102117.03;;;7.64;85.78
72612;BME280;60655;52.182;4.474;2024-03-17T01:44:21;102117.53;;;7.59;86.33
72612;BME280;60655;52.182;4.474;2024-03-17T01:46:22;102112.06;;;7.61;86.28
72612;BME280;60655;52.182;4.474;2024-03-17T01:48:23;102110.59;;;7.66;87.51
72612;BME280;60655;52.182;4.474;2024-03-17T01:50:26;102099.84;;;7.60;87.00
72612;BME280;60655;52.182;4.474;2024-03-17T01:52:29;102096.53;;;7.58;86.93
72612;BME280;60655;52.182;4.474;2024-03-17T01:54:29;102089.75;;;7.55;86.81
72612;BME280;60655;52.182;4.474;2024-03-17T01:56:31;102096.88;;;7.55;87.30
72612;BME280;60655;52.182;4.474;2024-03-17T01:58:32;102092.91;;;7.59;87.87
72612;BME280;60655;52.182;4.474;2024-03-17T02:00:34;102093.22;;;7.64;87.37
72612;BME280;60655;52.182;4.474;2024-03-17T02:02:37;102081.50;;;7.58;87.47
72612;BME280;60655;52.182;4.474;2024-03-17T02:04:38;102088.59;;;7.58;87.68
72612;BME280;60655;52.182;4.474;2024-03-17T02:06:39;102083.97;;;7.60;88.14
72612;BME280;60655;52.182;4.474;2024-03-17T02:08:55;102089.75;;;7.55;88.01
72612;BME280;60655;52.182;4.474;2024-03-17T02:10:57;102077.84;;;7.59;88.75
72612;BME280;60655;52.182;4.474;2024-03-17T02:12:58;102084.31;;;7.57;88.62
72612;BME280;60655;52.182;4.474;2024-03-17T02:14:59;102082.66;;;7.56;88.50
72612;BME280;60655;52.182;4.474;2024-03-17T02:17:00;102074.41;;;7.51;88.92
72612;BME280;60655;52.182;4.474;2024-03-17T02:19:00;102080.03;;;7.48;88.79
72612;BME280;60655;52.182;4.474;2024-03-17T02:21:01;102065.97;;;7.47;89.53
72612;BME280;60655;52.182;4.474;2024-03-17T02:23:02;102072.56;;;7.51;90.50
72612;BME280;60655;52.182;4.474;2024-03-17T02:25:03;102070.75;;;7.52;90.29
72612;BME280;60655;52.182;4.474;2024-03-17T02:27:05;102054.91;;;7.43;90.30
72612;BME280;60655;52.182;4.474;2024-03-17T02:29:05;102060.38;;;7.50;90.25
72612;BME280;60655;52.182;4.474;2024-03-17T02:31:08;102060.38;;;7.50;90.29
72612;BME280;60655;52.182;4.474;2024-03-17T02:33:09;102054.25;;;7.50;90.37
72612;BME280;60655;52.182;4.474;2024-03-17T02:35:10;102061.19;;;7.51;90.83
72612;BME280;60655;52.182;4.474;2024-03-17T02:37:11;102059.34;;;7.51;90.73
72612;BME280;60655;52.182;4.474;2024-03-17T02:39:12;102052.75;;;7.55;90.73
72612;BME280;60655;52.182;4.474;2024-03-17T02:41:34;102047.13;;;7.58;91.43
72612;BME280;60655;52.182;4.474;2024-03-17T02:43:35;102047.78;;;7.60;91.21
72612;BME280;60655;52.182;4.474;2024-03-17T02:45:36;102043.16;;;7.54;90.57
72612;BME280;60655;52.182;4.474;2024-03-17T02:47:38;102049.75;;;7.58;91.43
72612;BME280;60655;52.182;4.474;2024-03-17T02:49:39;102044.97;;;7.54;90.86
72612;BME280;60655;52.182;4.474;2024-03-17T02:51:40;102044.16;;;7.61;91.25
72612;BME280;60655;52.182;4.474;2024-03-17T02:53:41;102027.78;;;7.66;91.22
72612;BME280;60655;52.182;4.474;2024-03-17T02:55:42;102037.69;;;7.72;91.46
72612;BME280;60655;52.182;4.474;2024-03-17T02:57:44;102040.34;;;7.72;91.31
72612;BME280;60655;52.182;4.474;2024-03-17T02:59:44;102028.59;;;7.66;91.36
72612;BME280;60655;52.182;4.474;2024-03-17T03:01:47;102015.88;;;7.54;90.68
72612;BME280;60655;52.182;4.474;2024-03-17T03:03:47;102039.84;;;7.60;91.29
72612;BME280;60655;52.182;4.474;2024-03-17T03:05:48;102041.16;;;7.56;91.34
72612;BME280;60655;52.182;4.474;2024-03-17T03:07:49;102041.00;;;7.58;91.42
72612;BME280;60655;52.182;4.474;2024-03-17T03:09:51;102035.56;;;7.59;92.12
72612;BME280;60655;52.182;4.474;2024-03-17T03:11:52;102037.88;;;7.62;92.17
72612;BME280;60655;52.182;4.474;2024-03-17T03:13:53;102036.88;;;7.55;92.03
72612;BME280;60655;52.182;4.474;2024-03-17T03:15:54;102040.50;;;7.70;92.24
72612;BME280;60655;52.182;4.474;2024-03-17T03:17:54;102029.09;;;7.70;92.12
72612;BME280;60655;52.182;4.474;2024-03-17T03:19:55;102022.31;;;7.67;92.34
72612;BME280;60655;52.182;4.474;2024-03-17T03:21:56;102018.69;;;7.60;92.28
72612;BME280;60655;52.182;4.474;2024-03-17T03:23:57;102017.84;;;7.68;92.53
72612;BME280;60655;52.182;4.474;2024-03-17T03:25:59;101999.50;;;7.66;92.84
72612;BME280;60655;52.182;4.474;2024-03-17T03:28:00;102003.31;;;7.64;92.29
72612;BME280;60655;52.182;4.474;2024-03-17T03:30:02;101993.56;;;7.64;92.55
72612;BME280;60655;52.182;4.474;2024-03-17T03:32:07;101985.81;;;7.63;92.63
72612;BME280;60655;52.182;4.474;2024-03-17T03:34:08;101989.28;;;7.63;93.07
72612;BME280;60655;52.182;4.474;2024-03-17T03:36:10;101997.69;;;7.59;93.34
72612;BME280;60655;52.182;4.474;2024-03-17T03:38:12;101990.44;;;7.61;92.66
72612;BME280;60655;52.182;4.474;2024-03-17T03:40:14;101976.03;;;7.63;93.43
72612;BME280;60655;52.182;4.474;2024-03-17T03:42:18;101979.84;;;7.61;93.02
72612;BME280;60655;52.182;4.474;2024-03-17T03:44:19;101979.69;;;7.62;93.42
72612;BME280;60655;52.182;4.474;2024-03-17T03:46:19;101979.34;;;7.65;93.14
72612;BME280;60655;52.182;4.474;2024-03-17T03:48:21;101968.13;;;7.55;92.72
72612;BME280;60655;52.182;4.474;2024-03-17T03:50:22;101972.25;;;7.58;92.91
72612;BME280;60655;52.182;4.474;2024-03-17T03:52:23;101982.34;;;7.54;92.97
72612;BME280;60655;52.182;4.474;2024-03-17T03:54:25;101980.03;;;7.51;92.81
72612;BME280;60655;52.182;4.474;2024-03-17T03:56:26;101975.56;;;7.52;93.02
72612;BME280;60655;52.182;4.474;2024-03-17T03:58:27;101957.91;;;7.44;93.14
72612;BME280;60655;52.182;4.474;2024-03-17T04:00:29;101966.47;;;7.54;93.39
72612;BME280;60655;52.182;4.474;2024-03-17T04:02:32;101947.13;;;7.54;93.25
72612;BME280;60655;52.182;4.474;2024-03-17T04:04:35;101948.63;;;7.56;93.29
72612;BME280;60655;52.182;4.474;2024-03-17T04:06:35;101954.88;;;7.63;93.49
72612;BME280;60655;52.182;4.474;2024-03-17T04:08:38;101951.41;;;7.63;92.93
72612;BME280;60655;52.182;4.474;2024-03-17T04:10:44;101948.13;;;7.61;92.77
72612;BME280;60655;52.182;4.474;2024-03-17T04:12:45;101961.50;;;7.67;92.52
72612;BME280;60655;52.182;4.474;2024-03-17T04:14:45;101962.81;;;7.63;92.75
72612;BME280;60655;52.182;4.474;2024-03-17T04:16:47;101966.47;;;7.62;92.75
72612;BME280;60655;52.182;4.474;2024-03-17T04:18:48;101968.78;;;7.65;93.21
72612;BME280;60655;52.182;4.474;2024-03-17T04:20:49;101969.28;;;7.61;92.76
72612;BME280;60655;52.182;4.474;2024-03-17T04:22:50;101967.63;;;7.68;92.65
72612;BME280;60655;52.182;4.474;2024-03-17T04:24:51;101962.34;;;7.60;92.62
72612;BME280;60655;52.182;4.474;2024-03-17T04:26:56;101964.81;;;7.61;92.68
72612;BME280;60655;52.182;4.474;2024-03-17T04:28:57;101960.69;;;7.59;93.37
72612;BME280;60655;52.182;4.474;2024-03-17T04:31:08;101952.59;;;7.52;93.24
72612;BME280;60655;52.182;4.474;2024-03-17T04:33:09;101959.25;;;7.48;93.43
72612;BME280;60655;52.182;4.474;2024-03-17T04:35:11;101957.22;;;7.58;93.59
72612;BME280;60655;52.182;4.474;2024-03-17T04:37:13;101954.06;;;7.63;93.55
72612;BME280;60655;52.182;4.474;2024-03-17T04:39:14;101953.88;;;7.72;93.85
72612;BME280;60655;52.182;4.474;2024-03-17T04:41:16;101955.88;;;7.70;93.84
72612;BME280;60655;52.182;4.474;2024-03-17T04:43:17;101961.84;;;7.64;93.50
72612;BME280;60655;52.182;4.474;2024-03-17T04:45:18;101962.66;;;7.65;93.92
72612;BME280;60655;52.182;4.474;2024-03-17T04:47:19;101960.34;;;7.70;93.86
72612;BME280;60655;52.182;4.474;2024-03-17T04:49:19;101957.69;;;7.70;93.58
72612;BME280;60655;52.182;4.474;2024-03-17T04:51:21;101947.78;;;7.64;94.03
72612;BME280;60655;52.182;4.474;2024-03-17T04:53:21;101956.06;;;7.61;93.95
72612;BME280;60655;52.182;4.474;2024-03-17T04:55:22;101944.81;;;7.59;94.64
72612;BME280;60655;52.182;4.474;2024-03-17T04:57:23;101951.25;;;7.64;94.33
72612;BME280;60655;52.182;4.474;2024-03-17T04:59:24;101945.31;;;7.62;94.33
72612;BME280;60655;52.182;4.474;2024-03-17T05:01:25;101950.75;;;7.61;94.40
72612;BME280;60655;52.182;4.474;2024-03-17T05:03:26;101937.72;;;7.59;95.02
72612;BME280;60655;52.182;4.474;2024-03-17T05:05:27;101935.56;;;7.63;95.23
72612;BME280;60655;52.182;4.474;2024-03-17T05:07:28;101948.13;;;7.61;94.87
72612;BME280;60655;52.182;4.474;2024-03-17T05:09:28;101948.13;;;7.53;94.80
72612;BME280;60655;52.182;4.474;2024-03-17T05:11:29;101943.50;;;7.55;95.03
72612;BME280;60655;52.182;4.474;2024-03-17T05:13:31;101947.50;;;7.51;94.96
72612;BME280;60655;52.182;4.474;2024-03-17T05:15:36;101936.72;;;7.52;95.24
72612;BME280;60655;52.182;4.474;2024-03-17T05:17:37;101937.38;;;7.54;95.50
72612;BME280;60655;52.182;4.474;2024-03-17T05:19:38;101937.88;;;7.58;95.75
72612;BME280;60655;52.182;4.474;2024-03-17T05:21:39;101949.78;;;7.62;95.74
72612;BME280;60655;52.182;4.474;2024-03-17T05:23:39;101948.09;;;7.69;95.95
72612;BME280;60655;52.182;4.474;2024-03-17T05:25:40;101935.06;;;7.59;95.20
72612;BME280;60655;52.182;4.474;2024-03-17T05:27:41;101934.75;;;7.54;94.95
72612;BME280;60655;52.182;4.474;2024-03-17T05:29:42;101935.72;;;7.53;95.59
72612;BME280;60655;52.182;4.474;2024-03-17T05:31:43;101944.50;;;7.54;95.23
72612;BME280;60655;52.182;4.474;2024-03-17T05:33:44;101938.53;;;7.52;95.77
72612;BME280;60655;52.182;4.474;2024-03-17T05:35:49;101945.31;;;7.54;95.68
72612;BME280;60655;52.182;4.474;2024-03-17T05:37:53;101938.88;;;7.57;96.47
72612;BME280;60655;52.182;4.474;2024-03-17T05:39:54;101943.16;;;7.58;96.00
72612;BME280;60655;52.182;4.474;2024-03-17T05:41:54;101947.44;;;7.67;96.16
72612;BME280;60655;52.182;4.474;2024-03-17T05:43:55;101946.63;;;7.58;95.60
72612;BME280;60655;52.182;4.474;2024-03-17T05:46:00;101945.47;;;7.61;95.70
72612;BME280;60655;52.182;4.474;2024-03-17T05:48:01;101940.19;;;7.53;95.52
72612;BME280;60655;52.182;4.474;2024-03-17T05:50:06;101939.69;;;7.57;95.88
72612;BME280;60655;52.182;4.474;2024-03-17T05:52:07;101936.56;;;7.54;95.35
72612;BME280;60655;52.182;4.474;2024-03-17T05:54:09;101930.44;;;7.53;96.09
72612;BME280;60655;52.182;4.474;2024-03-17T05:56:10;101941.84;;;7.54;96.10
72612;BME280;60655;52.182;4.474;2024-03-17T05:58:12;101937.06;;;7.57;96.12
72612;BME280;60655;52.182;4.474;2024-03-17T06:00:13;101940.19;;;7.61;96.07
72612;BME280;60655;52.182;4.474;2024-03-17T06:02:15;101941.69;;;7.55;96.52
72612;BME280;60655;52.182;4.474;2024-03-17T06:04:16;101945.13;;;7.64;96.73
72612;BME280;60655;52.182;4.474;2024-03-17T06:06:17;101948.78;;;7.63;96.75
72612;BME280;60655;52.182;4.474;2024-03-17T06:08:18;101944.63;;;7.68;96.55
72612;BME280;60655;52.182;4.474;2024-03-17T06:10:19;101936.38;;;7.63;95.38
72612;BME280;60655;52.182;4.474;2024-03-17T06:12:24;101942.47;;;7.72;95.83
72612;BME280;60655;52.182;4.474;2024-03-17T06:14:25;101942.16;;;7.75;96.03
72612;BME280;60655;52.182;4.474;2024-03-17T06:16:26;101935.16;;;7.82;96.06
72612;BME280;60655;52.182;4.474;2024-03-17T06:18:27;101935.81;;;7.84;95.62
72612;BME280;60655;52.182;4.474;2024-03-17T06:20:28;101934.81;;;7.85;95.65
72612;BME280;60655;52.182;4.474;2024-03-17T06:22:29;101933.66;;;7.88;95.44
72612;BME280;60655;52.182;4.474;2024-03-17T06:24:30;101932.97;;;7.94;95.35
72612;BME280;60655;52.182;4.474;2024-03-17T06:26:30;101935.63;;;7.94;94.84
72612;BME280;60655;52.182;4.474;2024-03-17T06:28:34;101934.28;;;7.98;95.24
72612;BME280;60655;52.182;4.474;2024-03-17T06:30:35;101932.13;;;8.01;95.03
72612;BME280;60655;52.182;4.474;2024-03-17T06:32:36;101935.28;;;7.97;95.25
72612;BME280;60655;52.182;4.474;2024-03-17T06:34:37;101940.56;;;7.97;95.26
72612;BME280;60655;52.182;4.474;2024-03-17T06:36:38;101937.44;;;7.93;95.25
72612;BME280;60655;52.182;4.474;2024-03-17T06:38:39;101942.03;;;7.99;95.01
72612;BME280;60655;52.182;4.474;2024-03-17T06:40:39;101924.03;;;7.95;94.61
72612;BME280;60655;52.182;4.474;2024-03-17T06:42:40;101944.28;;;8.10;94.94
72612;BME280;60655;52.182;4.474;2024-03-17T06:44:44;101939.38;;;8.07;94.75
72612;BME280;60655;52.182;4.474;2024-03-17T06:46:45;101932.72;;;8.11;95.12
72612;BME280;60655;52.182;4.474;2024-03-17T06:48:47;101926.56;;;8.19;94.95
72612;BME280;60655;52.182;4.474;2024-03-17T06:50:48;101928.19;;;8.28;94.57
72612;BME280;60655;52.182;4.474;2024-03-17T06:52:49;101922.72;;;8.30;94.52
72612;BME280;60655;52.182;4.474;2024-03-17T06:54:50;101930.63;;;8.38;94.28
72612;BME280;60655;52.182;4.474;2024-03-17T06:56:51;101928.78;;;8.38;93.74
72612;BME280;60655;52.182;4.474;2024-03-17T06:58:52;101933.81;;;8.33;92.99
72612;BME280;60655;52.182;4.474;2024-03-17T07:00:59;101928.50;;;8.33;92.95
72612;BME280;60655;52.182;4.474;2024-03-17T07:03:00;101933.25;;;8.38;93.20
72612;BME280;60655;52.182;4.474;2024-03-17T07:05:01;101939.22;;;8.40;92.55
72612;BME280;60655;52.182;4.474;2024-03-17T07:07:03;101932.00;;;8.34;92.89
72612;BME280;60655;52.182;4.474;2024-03-17T07:09:04;101932.75;;;8.42;92.15
72612;BME280;60655;52.182;4.474;2024-03-17T07:11:05;101924.50;;;8.37;91.71
72612;BME280;60655;52.182;4.474;2024-03-17T07:13:06;101929.63;;;8.39;91.85
72612;BME280;60655;52.182;4.474;2024-03-17T07:15:07;101920.47;;;8.50;92.01
72612;BME280;60655;52.182;4.474;2024-03-17T07:17:09;101917.28;;;8.54;92.15
72612;BME280;60655;52.182;4.474;2024-03-17T07:19:09;101931.81;;;8.58;91.49
72612;BME280;60655;52.182;4.474;2024-03-17T07:21:10;101933.81;;;8.56;91.30
72612;BME280;60655;52.182;4.474;2024-03-17T07:23:11;101934.81;;;8.55;91.40
72612;BME280;60655;52.182;4.474;2024-03-17T07:25:12;101935.00;;;8.54;91.53
72612;BME280;60655;52.182;4.474;2024-03-17T07:27:13;101939.47;;;8.53;91.80
72612;BME280;60655;52.182;4.474;2024-03-17T07:29:15;101941.59;;;8.58;92.41
72612;BME280;60655;52.182;4.474;2024-03-17T07:31:16;101952.50;;;8.63;92.28
72612;BME280;60655;52.182;4.474;2024-03-17T07:33:17;101951.19;;;8.59;91.29
72612;BME280;60655;52.182;4.474;2024-03-17T07:35:20;101950.50;;;8.65;92.56
72612;BME280;60655;52.182;4.474;2024-03-17T07:37:22;101947.47;;;8.68;92.44
72612;BME280;60655;52.182;4.474;2024-03-17T07:39:23;101951.03;;;8.60;91.71
72612;BME280;60655;52.182;4.474;2024-03-17T07:41:23;101960.44;;;8.63;92.29
72612;BME280;60655;52.182;4.474;2024-03-17T07:43:28;101948.53;;;8.59;92.79
72612;BME280;60655;52.182;4.474;2024-03-17T07:45:29;101944.72;;;8.61;93.35
72612;BME280;60655;52.182;4.474;2024-03-17T07:47:30;101951.50;;;8.64;92.49
72612;BME280;60655;52.182;4.474;2024-03-17T07:49:36;101941.34;;;8.67;92.86
72612;BME280;60655;52.182;4.474;2024-03-17T07:51:37;101941.28;;;8.75;94.07
72612;BME280;60655;52.182;4.474;2024-03-17T07:53:39;101946.84;;;8.66;92.43
72612;BME280;60655;52.182;4.474;2024-03-17T07:55:43;101951.25;;;8.73;93.07
72612;BME280;60655;52.182;4.474;2024-03-17T07:57:43;101941.16;;;8.69;92.90
72612;BME280;60655;52.182;4.474;2024-03-17T07:59:44;101949.03;;;8.85;93.98
72612;BME280;60655;52.182;4.474;2024-03-17T08:01:47;101955.13;;;8.86;93.16
72612;BME280;60655;52.182;4.474;2024-03-17T08:03:47;101955.13;;;8.86;92.87
72612;BME280;60655;52.182;4.474;2024-03-17T08:05:56;101947.03;;;8.87;93.11
72612;BME280;60655;52.182;4.474;2024-03-17T08:07:56;101956.19;;;8.99;93.12
72612;BME280;60655;52.182;4.474;2024-03-17T08:09:57;101946.13;;;8.95;92.44
72612;BME280;60655;52.182;4.474;2024-03-17T08:11:58;101957.19;;;8.98;92.81
72612;BME280;60655;52.182;4.474;2024-03-17T08:13:59;101951.22;;;8.96;92.83
72612;BME280;60655;52.182;4.474;2024-03-17T08:16:06;101939.78;;;8.81;93.04
72612;BME280;60655;52.182;4.474;2024-03-17T08:18:07;101947.19;;;8.86;93.12
72612;BME280;60655;52.182;4.474;2024-03-17T08:20:09;101948.31;;;8.91;93.88
72612;BME280;60655;52.182;4.474;2024-03-17T08:22:10;101936.13;;;8.82;93.18
72612;BME280;60655;52.182;4.474;2024-03-17T08:24:10;101954.88;;;8.95;93.45
72612;BME280;60655;52.182;4.474;2024-03-17T08:26:11;101949.97;;;8.92;93.48
72612;BME280;60655;52.182;4.474;2024-03-17T08:28:12;101945.66;;;8.91;93.69
72612;BME280;60655;52.182;4.474;2024-03-17T08:30:13;101951.34;;;9.03;94.39
72612;BME280;60655;52.182;4.474;2024-03-17T08:32:14;101932.50;;;8.98;94.07
72612;BME280;60655;52.182;4.474;2024-03-17T08:34:15;101944.34;;;9.10;93.56
72612;BME280;60655;52.182;4.474;2024-03-17T08:36:16;101937.16;;;9.19;93.91
72612;BME280;60655;52.182;4.474;2024-03-17T08:38:18;101934.97;;;9.22;93.55
72612;BME280;60655;52.182;4.474;2024-03-17T08:40:21;101929.38;;;9.17;92.90
72612;BME280;60655;52.182;4.474;2024-03-17T08:42:23;101924.97;;;9.09;92.74
72612;BME280;60655;52.182;4.474;2024-03-17T08:44:24;101923.16;;;9.25;93.16
72612;BME280;60655;52.182;4.474;2024-03-17T08:46:24;101921.97;;;9.27;93.17
72612;BME280;60655;52.182;4.474;2024-03-17T08:48:25;101922.91;;;9.34;93.13
72612;BME280;60655;52.182;4.474;2024-03-17T08:50:27;101926.66;;;9.40;93.19
72612;BME280;60655;52.182;4.474;2024-03-17T08:52:32;101928.47;;;9.39;92.69
72612;BME280;60655;52.182;4.474;2024-03-17T08:54:33;101926.38;;;9.35;92.61
72612;BME280;60655;52.182;4.474;2024-03-17T08:56:34;101920.88;;;9.36;92.74
72612;BME280;60655;52.182;4.474;2024-03-17T08:58:36;101920.81;;;9.44;92.30
72612;BME280;60655;52.182;4.474;2024-03-17T09:00:37;101924.28;;;9.60;92.35
72612;BME280;60655;52.182;4.474;2024-03-17T09:02:38;101908.53;;;9.58;92.10
72612;BME280;60655;52.182;4.474;2024-03-17T09:04:38;101897.56;;;9.61;91.85
72612;BME280;60655;52.182;4.474;2024-03-17T09:06:39;101925.41;;;9.80;91.59
72612;BME280;60655;52.182;4.474;2024-03-17T09:08:41;101901.03;;;9.91;91.48
72612;BME280;60655;52.182;4.474;2024-03-17T09:10:42;101907.59;;;10.10;91.03
72612;BME280;60655;52.182;4.474;2024-03-17T09:12:43;101897.84;;;10.17;90.14
72612;BME280;60655;52.182;4.474;2024-03-17T09:14:47;101896.59;;;10.28;89.37
72612;BME280;60655;52.182;4.474;2024-03-17T09:16:48;101899.34;;;10.41;88.63
72612;BME280;60655;52.182;4.474;2024-03-17T09:18:49;101900.19;;;10.41;88.18
72612;BME280;60655;52.182;4.474;2024-03-17T09:21:03;101894.69;;;10.43;87.85
72612;BME280;60655;52.182;4.474;2024-03-17T09:23:04;101902.03;;;10.62;88.22
72612;BME280;60655;52.182;4.474;2024-03-17T09:25:05;101901.06;;;10.70;87.02
72612;BME280;60655;52.182;4.474;2024-03-17T09:27:07;101892.78;;;10.79;86.81
72612;BME280;60655;52.182;4.474;2024-03-17T09:29:10;101896.50;;;10.85;86.47
72612;BME280;60655;52.182;4.474;2024-03-17T09:31:11;101893.47;;;10.88;86.34
72612;BME280;60655;52.182;4.474;2024-03-17T09:33:12;101891.44;;;10.90;85.52
72612;BME280;60655;52.182;4.474;2024-03-17T09:35:13;101897.88;;;11.02;85.65
72612;BME280;60655;52.182;4.474;2024-03-17T09:37:14;101893.38;;;11.03;85.08
72612;BME280;60655;52.182;4.474;2024-03-17T09:39:16;101898.03;;;11.22;85.40
72612;BME280;60655;52.182;4.474;2024-03-17T09:41:22;101883.94;;;11.28;84.82
72612;BME280;60655;52.182;4.474;2024-03-17T09:43:25;101891.19;;;11.41;84.64
72612;BME280;60655;52.182;4.474;2024-03-17T09:45:26;101890.41;;;11.47;84.40
72612;BME280;60655;52.182;4.474;2024-03-17T09:47:29;101889.44;;;11.55;83.80
72612;BME280;60655;52.182;4.474;2024-03-17T09:49:30;101892.13;;;11.61;83.75
72612;BME280;60655;52.182;4.474;2024-03-17T09:51:31;101888.81;;;11.59;83.44
72612;BME280;60655;52.182;4.474;2024-03-17T09:53:34;101888.66;;;11.67;83.22
72612;BME280;60655;52.182;4.474;2024-03-17T09:55:35;101880.91;;;11.72;82.68
72612;BME280;60655;52.182;4.474;2024-03-17T09:57:36;101879.72;;;11.75;82.50
72612;BME280;60655;52.182;4.474;2024-03-17T09:59:37;101878.53;;;11.77;82.38
72612;BME280;60655;52.182;4.474;2024-03-17T10:01:38;101868.50;;;11.79;82.01
72612;BME280;60655;52.182;4.474;2024-03-17T10:03:50;101884.53;;;11.99;82.08
72612;BME280;60655;52.182;4.474;2024-03-17T10:06:04;101887.19;;;11.99;81.48
72612;BME280;60655;52.182;4.474;2024-03-17T10:08:06;101881.06;;;11.99;81.21
72612;BME280;60655;52.182;4.474;2024-03-17T10:10:12;101880.22;;;11.98;81.29
72612;BME280;60655;52.182;4.474;2024-03-17T10:12:27;101883.13;;;12.03;81.40
72612;BME280;60655;52.182;4.474;2024-03-17T10:14:28;101875.53;;;12.00;81.60
72612;BME280;60655;52.182;4.474;2024-03-17T10:16:31;101887.47;;;12.11;81.83
72612;BME280;60655;52.182;4.474;2024-03-17T10:18:32;101883.56;;;12.07;82.02
72612;BME280;60655;52.182;4.474;2024-03-17T10:20:34;101881.31;;;12.10;82.36
72612;BME280;60655;52.182;4.474;2024-03-17T10:22:35;101878.38;;;11.92;82.47
72612;BME280;60655;52.182;4.474;2024-03-17T10:24:35;101875.91;;;11.91;82.54
72612;BME280;60655;52.182;4.474;2024-03-17T10:28:43;101878.34;;;11.86;83.36
72612;BME280;60655;52.182;4.474;2024-03-17T10:31:00;101874.28;;;11.96;83.46
72612;BME280;60655;52.182;4.474;2024-03-17T10:33:01;101879.25;;;12.06;83.36
72612;BME280;60655;52.182;4.474;2024-03-17T10:35:32;101878.84;;;12.15;82.68
72612;BME280;60655;52.182;4.474;2024-03-17T10:37:33;101873.97;;;12.32;82.70
72612;BME280;60655;52.182;4.474;2024-03-17T10:39:34;101876.88;;;12.37;81.92
72612;BME280;60655;52.182;4.474;2024-03-17T10:41:37;101868.25;;;12.35;81.76
72612;BME280;60655;52.182;4.474;2024-03-17T10:43:38;101877.06;;;12.36;82.36
72612;BME280;60655;52.182;4.474;2024-03-17T10:45:42;101870.50;;;12.45;81.62